sensor_id;sensor_type;location;lat;lon;timestamp;P1;durP1;ratioP1;P2;durP2;ratioP2
11996;SDS011;6058;48.704;9.474;2022-08-05T00:00:08;2.80;;;2.55;;
11996;SDS011;6058;48.704;9.474;2022-08-05T00:02:36;2.78;;;2.58;;
11996;SDS011;6058;48.704;9.474;2022-08-05T00:05:03;2.85;;;2.65;;
11996;SDS011;6058;48.704;9.474;2022-08-05T00:07:30;3.00;;;2.80;;
11996;SDS011;6058;48.704;9.474;2022-08-05T00:09:57;5.00;;;2.53;;
11996;SDS011;6058;48.704;9.474;2022-08-05T00:12:25;3.22;;;2.92;;
11996;SDS011;6058;48.704;9.474;2022-08-05T00:14:52;4.47;;;2.80;;
11996;SDS011;6058;48.704;9.474;2022-08-05T00:17:20;2.75;;;2.58;;
11996;SDS011;6058;48.704;9.474;2022-08-05T00:19:47;2.72;;;2.53;;
11996;SDS011;6058;48.704;9.474;2022-08-05T00:22:14;4.43;;;2.70;;
11996;SDS011;6058;48.704;9.474;2022-08-05T00:24:41;2.53;;;2.33;;
11996;SDS011;6058;48.704;9.474;2022-08-05T00:27:09;4.53;;;2.50;;
11996;SDS011;6058;48.704;9.474;2022-08-05T00:29:36;3.30;;;3.00;;
11996;SDS011;6058;48.704;9.474;2022-08-05T00:32:03;3.83;;;3.03;;
11996;SDS011;6058;48.704;9.474;2022-08-05T00:34:32;4.03;;;2.80;;
11996;SDS011;6058;48.704;9.474;2022-08-05T00:36:59;3.38;;;2.70;;
11996;SDS011;6058;48.704;9.474;2022-08-05T00:39:26;2.83;;;2.58;;
11996;SDS011;6058;48.704;9.474;2022-08-05T00:41:53;4.05;;;3.08;;
11996;SDS011;6058;48.704;9.474;2022-08-05T00:44:20;3.58;;;2.90;;
11996;SDS011;6058;48.704;9.474;2022-08-05T00:46:47;2.70;;;2.50;;
11996;SDS011;6058;48.704;9.474;2022-08-05T00:51:44;2.97;;;2.70;;
11996;SDS011;6058;48.704;9.474;2022-08-05T00:54:11;2.80;;;2.38;;
11996;SDS011;6058;48.704;9.474;2022-08-05T00:56:38;3.08;;;2.80;;
11996;SDS011;6058;48.704;9.474;2022-08-05T00:59:06;6.00;;;2.90;;
11996;SDS011;6058;48.704;9.474;2022-08-05T01:01:33;2.60;;;2.50;;
11996;SDS011;6058;48.704;9.474;2022-08-05T01:04:00;4.00;;;2.80;;
11996;SDS011;6058;48.704;9.474;2022-08-05T01:06:27;5.15;;;2.45;;
11996;SDS011;6058;48.704;9.474;2022-08-05T01:08:55;3.30;;;3.00;;
11996;SDS011;6058;48.704;9.474;2022-08-05T01:11:26;2.80;;;2.60;;
11996;SDS011;6058;48.704;9.474;2022-08-05T01:13:56;3.05;;;2.80;;
11996;SDS011;6058;48.704;9.474;2022-08-05T01:16:28;2.58;;;2.38;;
11996;SDS011;6058;48.704;9.474;2022-08-05T01:18:58;2.70;;;2.50;;
11996;SDS011;6058;48.704;9.474;2022-08-05T01:24:39;3.33;;;3.03;;
11996;SDS011;6058;48.704;9.474;2022-08-05T01:27:09;3.60;;;2.53;;
11996;SDS011;6058;48.704;9.474;2022-08-05T01:29:40;2.30;;;2.20;;
11996;SDS011;6058;48.704;9.474;2022-08-05T01:32:10;3.35;;;2.90;;
11996;SDS011;6058;48.704;9.474;2022-08-05T01:34:42;2.80;;;2.60;;
11996;SDS011;6058;48.704;9.474;2022-08-05T01:37:13;4.75;;;2.80;;
11996;SDS011;6058;48.704;9.474;2022-08-05T01:39:42;2.78;;;2.58;;
11996;SDS011;6058;48.704;9.474;2022-08-05T01:42:11;3.42;;;3.10;;
11996;SDS011;6058;48.704;9.474;2022-08-05T01:44:40;5.15;;;2.75;;
11996;SDS011;6058;48.704;9.474;2022-08-05T01:47:08;4.57;;;2.75;;
11996;SDS011;6058;48.704;9.474;2022-08-05T01:49:37;2.95;;;2.75;;
11996;SDS011;6058;48.704;9.474;2022-08-05T01:52:05;2.90;;;2.70;;
11996;SDS011;6058;48.704;9.474;2022-08-05T01:54:34;3.08;;;2.75;;
11996;SDS011;6058;48.704;9.474;2022-08-05T01:57:03;2.70;;;2.50;;
11996;SDS011;6058;48.704;9.474;2022-08-05T01:59:31;3.42;;;2.58;;
11996;SDS011;6058;48.704;9.474;2022-08-05T02:02:00;3.17;;;2.90;;
11996;SDS011;6058;48.704;9.474;2022-08-05T02:04:28;4.32;;;2.92;;
11996;SDS011;6058;48.704;9.474;2022-08-05T02:06:57;4.35;;;3.60;;
11996;SDS011;6058;48.704;9.474;2022-08-05T02:09:25;5.97;;;3.22;;
11996;SDS011;6058;48.704;9.474;2022-08-05T02:11:54;3.50;;;3.20;;
11996;SDS011;6058;48.704;9.474;2022-08-05T02:14:25;3.80;;;3.10;;
11996;SDS011;6058;48.704;9.474;2022-08-05T02:16:53;4.53;;;3.97;;
11996;SDS011;6058;48.704;9.474;2022-08-05T02:19:24;3.45;;;2.88;;
11996;SDS011;6058;48.704;9.474;2022-08-05T02:21:57;3.33;;;2.80;;
11996;SDS011;6058;48.704;9.474;2022-08-05T02:24:26;2.90;;;2.70;;
11996;SDS011;6058;48.704;9.474;2022-08-05T02:26:55;3.53;;;3.10;;
11996;SDS011;6058;48.704;9.474;2022-08-05T02:29:23;2.70;;;2.50;;
11996;SDS011;6058;48.704;9.474;2022-08-05T02:31:50;4.07;;;2.85;;
11996;SDS011;6058;48.704;9.474;2022-08-05T02:34:19;3.03;;;2.78;;
11996;SDS011;6058;48.704;9.474;2022-08-05T02:36:50;3.33;;;3.03;;
11996;SDS011;6058;48.704;9.474;2022-08-05T02:39:18;3.42;;;2.72;;
11996;SDS011;6058;48.704;9.474;2022-08-05T02:41:46;3.22;;;2.90;;
11996;SDS011;6058;48.704;9.474;2022-08-05T02:44:13;4.57;;;2.55;;
11996;SDS011;6058;48.704;9.474;2022-08-05T02:46:41;2.97;;;2.78;;
11996;SDS011;6058;48.704;9.474;2022-08-05T02:49:08;3.67;;;2.90;;
11996;SDS011;6058;48.704;9.474;2022-08-05T02:51:36;3.42;;;2.83;;
11996;SDS011;6058;48.704;9.474;2022-08-05T02:54:05;3.80;;;2.60;;
11996;SDS011;6058;48.704;9.474;2022-08-05T02:56:32;3.17;;;2.92;;
11996;SDS011;6058;48.704;9.474;2022-08-05T02:59:00;3.33;;;2.92;;
11996;SDS011;6058;48.704;9.474;2022-08-05T03:01:27;3.30;;;3.00;;
11996;SDS011;6058;48.704;9.474;2022-08-05T03:03:57;2.92;;;2.70;;
11996;SDS011;6058;48.704;9.474;2022-08-05T03:06:24;4.03;;;3.10;;
11996;SDS011;6058;48.704;9.474;2022-08-05T03:08:52;3.90;;;2.80;;
11996;SDS011;6058;48.704;9.474;2022-08-05T03:11:21;2.90;;;2.70;;
11996;SDS011;6058;48.704;9.474;2022-08-05T03:13:49;2.70;;;2.50;;
11996;SDS011;6058;48.704;9.474;2022-08-05T03:16:16;4.20;;;3.15;;
11996;SDS011;6058;48.704;9.474;2022-08-05T03:18:43;3.35;;;3.05;;
11996;SDS011;6058;48.704;9.474;2022-08-05T03:21:10;6.57;;;3.58;;
11996;SDS011;6058;48.704;9.474;2022-08-05T03:23:38;3.17;;;2.80;;
11996;SDS011;6058;48.704;9.474;2022-08-05T03:26:06;3.28;;;2.97;;
11996;SDS011;6058;48.704;9.474;2022-08-05T03:28:34;4.15;;;2.95;;
11996;SDS011;6058;48.704;9.474;2022-08-05T03:31:02;5.40;;;2.70;;
11996;SDS011;6058;48.704;9.474;2022-08-05T03:33:30;5.95;;;2.70;;
11996;SDS011;6058;48.704;9.474;2022-08-05T03:35:57;3.30;;;3.00;;
11996;SDS011;6058;48.704;9.474;2022-08-05T03:38:24;3.25;;;2.95;;
11996;SDS011;6058;48.704;9.474;2022-08-05T03:40:52;3.38;;;3.08;;
11996;SDS011;6058;48.704;9.474;2022-08-05T03:43:19;4.95;;;3.05;;
11996;SDS011;6058;48.704;9.474;2022-08-05T03:45:50;5.88;;;3.30;;
11996;SDS011;6058;48.704;9.474;2022-08-05T03:48:18;3.65;;;3.15;;
11996;SDS011;6058;48.704;9.474;2022-08-05T03:50:47;3.67;;;3.38;;
11996;SDS011;6058;48.704;9.474;2022-08-05T03:53:18;4.93;;;3.28;;
11996;SDS011;6058;48.704;9.474;2022-08-05T03:55:49;3.28;;;2.92;;
11996;SDS011;6058;48.704;9.474;2022-08-05T03:58:18;3.22;;;2.97;;
11996;SDS011;6058;48.704;9.474;2022-08-05T04:00:50;2.53;;;2.42;;
11996;SDS011;6058;48.704;9.474;2022-08-05T04:03:19;3.10;;;2.72;;
11996;SDS011;6058;48.704;9.474;2022-08-05T04:05:47;5.10;;;4.57;;
11996;SDS011;6058;48.704;9.474;2022-08-05T04:08:14;4.88;;;2.92;;
11996;SDS011;6058;48.704;9.474;2022-08-05T04:10:42;3.28;;;3.05;;
11996;SDS011;6058;48.704;9.474;2022-08-05T04:13:10;3.08;;;2.85;;
11996;SDS011;6058;48.704;9.474;2022-08-05T04:15:38;3.35;;;2.78;;
11996;SDS011;6058;48.704;9.474;2022-08-05T04:18:06;3.40;;;2.80;;
11996;SDS011;6058;48.704;9.474;2022-08-05T04:20:33;2.88;;;2.63;;
11996;SDS011;6058;48.704;9.474;2022-08-05T04:23:00;3.38;;;2.80;;
11996;SDS011;6058;48.704;9.474;2022-08-05T04:25:27;2.97;;;2.58;;
11996;SDS011;6058;48.704;9.474;2022-08-05T04:27:54;3.35;;;2.97;;
11996;SDS011;6058;48.704;9.474;2022-08-05T04:30:22;3.55;;;3.10;;
11996;SDS011;6058;48.704;9.474;2022-08-05T04:32:51;4.25;;;2.97;;
11996;SDS011;6058;48.704;9.474;2022-08-05T04:35:19;5.18;;;2.85;;
11996;SDS011;6058;48.704;9.474;2022-08-05T04:37:46;3.53;;;3.05;;
11996;SDS011;6058;48.704;9.474;2022-08-05T04:40:13;3.33;;;3.10;;
11996;SDS011;6058;48.704;9.474;2022-08-05T04:42:41;3.33;;;2.90;;
11996;SDS011;6058;48.704;9.474;2022-08-05T04:45:08;3.20;;;3.00;;
11996;SDS011;6058;48.704;9.474;2022-08-05T04:47:36;4.35;;;3.08;;
11996;SDS011;6058;48.704;9.474;2022-08-05T04:50:03;3.55;;;2.55;;
11996;SDS011;6058;48.704;9.474;2022-08-05T04:52:31;4.43;;;3.15;;
11996;SDS011;6058;48.704;9.474;2022-08-05T04:57:48;3.08;;;2.70;;
11996;SDS011;6058;48.704;9.474;2022-08-05T05:00:15;3.08;;;2.63;;
11996;SDS011;6058;48.704;9.474;2022-08-05T05:02:42;3.13;;;2.70;;
11996;SDS011;6058;48.704;9.474;2022-08-05T05:05:10;3.20;;;2.90;;
11996;SDS011;6058;48.704;9.474;2022-08-05T05:07:38;4.72;;;3.10;;
11996;SDS011;6058;48.704;9.474;2022-08-05T05:10:06;4.20;;;3.45;;
11996;SDS011;6058;48.704;9.474;2022-08-05T05:12:33;3.88;;;3.10;;
11996;SDS011;6058;48.704;9.474;2022-08-05T05:15:00;5.25;;;2.67;;
11996;SDS011;6058;48.704;9.474;2022-08-05T05:17:27;2.72;;;2.38;;
11996;SDS011;6058;48.704;9.474;2022-08-05T05:19:54;3.58;;;2.78;;
11996;SDS011;6058;48.704;9.474;2022-08-05T05:22:22;3.00;;;2.50;;
11996;SDS011;6058;48.704;9.474;2022-08-05T05:24:50;3.50;;;2.97;;
11996;SDS011;6058;48.704;9.474;2022-08-05T05:27:17;2.75;;;2.50;;
11996;SDS011;6058;48.704;9.474;2022-08-05T05:29:45;4.07;;;3.03;;
11996;SDS011;6058;48.704;9.474;2022-08-05T05:32:12;3.00;;;2.70;;
11996;SDS011;6058;48.704;9.474;2022-08-05T05:34:39;4.80;;;2.75;;
11996;SDS011;6058;48.704;9.474;2022-08-05T05:37:06;4.70;;;3.38;;
11996;SDS011;6058;48.704;9.474;2022-08-05T05:39:33;4.00;;;3.13;;
11996;SDS011;6058;48.704;9.474;2022-08-05T05:42:02;3.92;;;3.00;;
11996;SDS011;6058;48.704;9.474;2022-08-05T05:44:30;4.40;;;2.97;;
11996;SDS011;6058;48.704;9.474;2022-08-05T05:46:57;7.22;;;3.30;;
11996;SDS011;6058;48.704;9.474;2022-08-05T05:49:24;4.72;;;2.97;;
11996;SDS011;6058;48.704;9.474;2022-08-05T05:51:51;6.57;;;3.30;;
11996;SDS011;6058;48.704;9.474;2022-08-05T05:54:19;6.00;;;3.72;;
11996;SDS011;6058;48.704;9.474;2022-08-05T05:56:46;8.90;;;3.17;;
11996;SDS011;6058;48.704;9.474;2022-08-05T05:59:15;7.20;;;3.45;;
11996;SDS011;6058;48.704;9.474;2022-08-05T06:01:42;7.63;;;3.45;;
11996;SDS011;6058;48.704;9.474;2022-08-05T06:04:10;4.35;;;2.72;;
11996;SDS011;6058;48.704;9.474;2022-08-05T06:06:38;4.90;;;3.30;;
11996;SDS011;6058;48.704;9.474;2022-08-05T06:09:06;5.15;;;3.25;;
11996;SDS011;6058;48.704;9.474;2022-08-05T06:11:33;9.43;;;2.90;;
11996;SDS011;6058;48.704;9.474;2022-08-05T06:14:01;5.65;;;3.05;;
11996;SDS011;6058;48.704;9.474;2022-08-05T06:16:29;5.60;;;3.05;;
11996;SDS011;6058;48.704;9.474;2022-08-05T06:18:56;3.55;;;3.08;;
11996;SDS011;6058;48.704;9.474;2022-08-05T06:21:23;5.50;;;3.28;;
11996;SDS011;6058;48.704;9.474;2022-08-05T06:23:50;4.72;;;2.97;;
11996;SDS011;6058;48.704;9.474;2022-08-05T06:26:17;5.38;;;3.35;;
11996;SDS011;6058;48.704;9.474;2022-08-05T06:28:45;5.20;;;3.00;;
11996;SDS011;6058;48.704;9.474;2022-08-05T06:31:12;10.10;;;3.47;;
11996;SDS011;6058;48.704;9.474;2022-08-05T06:33:40;6.20;;;3.00;;
11996;SDS011;6058;48.704;9.474;2022-08-05T06:36:07;7.63;;;3.42;;
11996;SDS011;6058;48.704;9.474;2022-08-05T06:38:34;5.03;;;3.13;;
11996;SDS011;6058;48.704;9.474;2022-08-05T06:41:02;12.07;;;3.55;;
11996;SDS011;6058;48.704;9.474;2022-08-05T06:43:29;5.97;;;3.00;;
11996;SDS011;6058;48.704;9.474;2022-08-05T06:45:56;2.95;;;2.42;;
11996;SDS011;6058;48.704;9.474;2022-08-05T06:48:23;5.28;;;2.90;;
11996;SDS011;6058;48.704;9.474;2022-08-05T06:53:20;3.50;;;2.65;;
11996;SDS011;6058;48.704;9.474;2022-08-05T06:55:50;4.20;;;2.72;;
11996;SDS011;6058;48.704;9.474;2022-08-05T06:58:17;5.57;;;2.70;;
11996;SDS011;6058;48.704;9.474;2022-08-05T07:00:44;2.80;;;2.40;;
11996;SDS011;6058;48.704;9.474;2022-08-05T07:03:11;4.82;;;2.55;;
11996;SDS011;6058;48.704;9.474;2022-08-05T07:05:38;3.75;;;2.50;;
11996;SDS011;6058;48.704;9.474;2022-08-05T07:08:05;6.97;;;2.50;;
11996;SDS011;6058;48.704;9.474;2022-08-05T07:10:34;3.28;;;2.40;;
11996;SDS011;6058;48.704;9.474;2022-08-05T07:13:01;4.05;;;2.58;;
11996;SDS011;6058;48.704;9.474;2022-08-05T07:15:46;4.22;;;2.15;;
11996;SDS011;6058;48.704;9.474;2022-08-05T07:18:30;6.88;;;2.50;;
11996;SDS011;6058;48.704;9.474;2022-08-05T07:20:57;2.25;;;2.08;;
11996;SDS011;6058;48.704;9.474;2022-08-05T07:23:24;2.72;;;2.53;;
11996;SDS011;6058;48.704;9.474;2022-08-05T07:25:52;2.53;;;2.17;;
11996;SDS011;6058;48.704;9.474;2022-08-05T07:28:20;4.50;;;2.22;;
11996;SDS011;6058;48.704;9.474;2022-08-05T07:30:47;4.50;;;2.70;;
11996;SDS011;6058;48.704;9.474;2022-08-05T07:33:14;2.50;;;2.30;;
11996;SDS011;6058;48.704;9.474;2022-08-05T07:35:41;2.53;;;2.13;;
11996;SDS011;6058;48.704;9.474;2022-08-05T07:38:08;5.78;;;2.17;;
11996;SDS011;6058;48.704;9.474;2022-08-05T07:40:35;3.42;;;2.28;;
11996;SDS011;6058;48.704;9.474;2022-08-05T07:43:03;2.85;;;2.03;;
11996;SDS011;6058;48.704;9.474;2022-08-05T07:45:31;3.75;;;2.22;;
11996;SDS011;6058;48.704;9.474;2022-08-05T07:47:58;3.83;;;2.33;;
11996;SDS011;6058;48.704;9.474;2022-08-05T07:50:26;4.95;;;2.13;;
11996;SDS011;6058;48.704;9.474;2022-08-05T07:52:53;3.25;;;2.30;;
11996;SDS011;6058;48.704;9.474;2022-08-05T07:55:20;4.15;;;2.10;;
11996;SDS011;6058;48.704;9.474;2022-08-05T07:57:47;2.95;;;1.90;;
11996;SDS011;6058;48.704;9.474;2022-08-05T08:00:16;2.53;;;1.98;;
11996;SDS011;6058;48.704;9.474;2022-08-05T08:02:44;1.92;;;1.75;;
11996;SDS011;6058;48.704;9.474;2022-08-05T08:05:11;2.78;;;1.73;;
11996;SDS011;6058;48.704;9.474;2022-08-05T08:07:38;2.42;;;2.20;;
11996;SDS011;6058;48.704;9.474;2022-08-05T08:10:05;2.55;;;1.83;;
11996;SDS011;6058;48.704;9.474;2022-08-05T08:12:32;5.97;;;1.83;;
11996;SDS011;6058;48.704;9.474;2022-08-05T08:14:59;2.53;;;2.22;;
11996;SDS011;6058;48.704;9.474;2022-08-05T08:17:28;4.38;;;2.28;;
11996;SDS011;6058;48.704;9.474;2022-08-05T08:19:55;3.70;;;2.08;;
11996;SDS011;6058;48.704;9.474;2022-08-05T08:22:24;3.85;;;2.08;;
11996;SDS011;6058;48.704;9.474;2022-08-05T08:24:52;1.80;;;1.70;;
11996;SDS011;6058;48.704;9.474;2022-08-05T08:27:19;3.10;;;1.77;;
11996;SDS011;6058;48.704;9.474;2022-08-05T08:29:46;4.22;;;1.73;;
11996;SDS011;6058;48.704;9.474;2022-08-05T08:32:13;2.15;;;1.95;;
11996;SDS011;6058;48.704;9.474;2022-08-05T08:34:42;3.83;;;1.80;;
11996;SDS011;6058;48.704;9.474;2022-08-05T08:37:09;2.47;;;1.65;;
11996;SDS011;6058;48.704;9.474;2022-08-05T08:39:36;1.92;;;1.73;;
11996;SDS011;6058;48.704;9.474;2022-08-05T08:42:04;1.80;;;1.70;;
11996;SDS011;6058;48.704;9.474;2022-08-05T08:44:31;2.22;;;2.05;;
11996;SDS011;6058;48.704;9.474;2022-08-05T08:46:59;3.08;;;1.98;;
11996;SDS011;6058;48.704;9.474;2022-08-05T08:49:28;3.05;;;1.98;;
11996;SDS011;6058;48.704;9.474;2022-08-05T08:52:00;3.10;;;1.80;;
11996;SDS011;6058;48.704;9.474;2022-08-05T08:54:27;3.05;;;1.65;;
11996;SDS011;6058;48.704;9.474;2022-08-05T08:56:54;2.00;;;1.75;;
11996;SDS011;6058;48.704;9.474;2022-08-05T08:59:22;2.08;;;1.98;;
11996;SDS011;6058;48.704;9.474;2022-08-05T09:01:49;2.88;;;1.88;;
11996;SDS011;6058;48.704;9.474;2022-08-05T09:04:17;2.22;;;1.80;;
11996;SDS011;6058;48.704;9.474;2022-08-05T09:06:44;3.97;;;2.05;;
11996;SDS011;6058;48.704;9.474;2022-08-05T09:09:13;1.80;;;1.70;;
11996;SDS011;6058;48.704;9.474;2022-08-05T09:11:40;2.17;;;1.98;;
11996;SDS011;6058;48.704;9.474;2022-08-05T09:14:08;3.45;;;1.95;;
11996;SDS011;6058;48.704;9.474;2022-08-05T09:16:37;4.65;;;2.20;;
11996;SDS011;6058;48.704;9.474;2022-08-05T09:19:05;2.38;;;1.85;;
11996;SDS011;6058;48.704;9.474;2022-08-05T09:21:33;2.75;;;1.98;;
11996;SDS011;6058;48.704;9.474;2022-08-05T09:24:01;2.63;;;2.25;;
11996;SDS011;6058;48.704;9.474;2022-08-05T09:26:30;1.80;;;1.70;;
11996;SDS011;6058;48.704;9.474;2022-08-05T09:28:58;2.03;;;1.70;;
11996;SDS011;6058;48.704;9.474;2022-08-05T09:31:28;3.45;;;2.13;;
11996;SDS011;6058;48.704;9.474;2022-08-05T09:33:56;2.65;;;1.80;;
11996;SDS011;6058;48.704;9.474;2022-08-05T09:36:24;1.70;;;1.60;;
11996;SDS011;6058;48.704;9.474;2022-08-05T09:39:04;2.70;;;2.08;;
11996;SDS011;6058;48.704;9.474;2022-08-05T09:41:33;2.30;;;1.85;;
11996;SDS011;6058;48.704;9.474;2022-08-05T09:44:01;2.90;;;2.13;;
11996;SDS011;6058;48.704;9.474;2022-08-05T09:46:28;1.90;;;1.80;;
11996;SDS011;6058;48.704;9.474;2022-08-05T09:48:57;1.85;;;1.70;;
11996;SDS011;6058;48.704;9.474;2022-08-05T09:51:30;2.67;;;1.92;;
11996;SDS011;6058;48.704;9.474;2022-08-05T09:53:59;2.00;;;1.90;;
11996;SDS011;6058;48.704;9.474;2022-08-05T09:56:29;2.67;;;1.80;;
11996;SDS011;6058;48.704;9.474;2022-08-05T09:58:59;2.22;;;2.03;;
11996;SDS011;6058;48.704;9.474;2022-08-05T10:01:27;2.55;;;1.83;;
11996;SDS011;6058;48.704;9.474;2022-08-05T10:03:55;2.80;;;1.92;;
11996;SDS011;6058;48.704;9.474;2022-08-05T10:06:24;1.85;;;1.75;;
11996;SDS011;6058;48.704;9.474;2022-08-05T10:08:51;2.20;;;2.00;;
11996;SDS011;6058;48.704;9.474;2022-08-05T10:11:19;2.88;;;1.70;;
11996;SDS011;6058;48.704;9.474;2022-08-05T10:13:46;3.47;;;2.20;;
11996;SDS011;6058;48.704;9.474;2022-08-05T10:16:31;3.33;;;1.70;;
11996;SDS011;6058;48.704;9.474;2022-08-05T10:18:59;4.03;;;1.83;;
11996;SDS011;6058;48.704;9.474;2022-08-05T10:21:26;2.40;;;1.70;;
11996;SDS011;6058;48.704;9.474;2022-08-05T10:23:54;1.70;;;1.60;;
11996;SDS011;6058;48.704;9.474;2022-08-05T10:26:21;1.73;;;1.60;;
11996;SDS011;6058;48.704;9.474;2022-08-05T10:28:48;1.80;;;1.70;;
11996;SDS011;6058;48.704;9.474;2022-08-05T10:31:16;4.30;;;1.90;;
11996;SDS011;6058;48.704;9.474;2022-08-05T10:33:45;2.10;;;1.90;;
11996;SDS011;6058;48.704;9.474;2022-08-05T10:36:12;4.65;;;2.10;;
11996;SDS011;6058;48.704;9.474;2022-08-05T10:38:41;2.38;;;2.00;;
11996;SDS011;6058;48.704;9.474;2022-08-05T10:41:12;2.83;;;1.80;;
11996;SDS011;6058;48.704;9.474;2022-08-05T10:43:44;3.50;;;1.80;;
11996;SDS011;6058;48.704;9.474;2022-08-05T10:46:13;2.25;;;1.85;;
11996;SDS011;6058;48.704;9.474;2022-08-05T10:48:41;2.55;;;1.60;;
11996;SDS011;6058;48.704;9.474;2022-08-05T10:51:11;2.30;;;2.10;;
11996;SDS011;6058;48.704;9.474;2022-08-05T10:53:42;2.00;;;1.80;;
11996;SDS011;6058;48.704;9.474;2022-08-05T10:56:11;1.88;;;1.77;;
11996;SDS011;6058;48.704;9.474;2022-08-05T10:58:49;3.33;;;1.65;;
11996;SDS011;6058;48.704;9.474;2022-08-05T11:01:16;2.00;;;1.80;;
11996;SDS011;6058;48.704;9.474;2022-08-05T11:04:05;1.92;;;1.83;;
11996;SDS011;6058;48.704;9.474;2022-08-05T11:06:35;3.05;;;1.55;;
11996;SDS011;6058;48.704;9.474;2022-08-05T11:09:23;2.50;;;1.70;;
11996;SDS011;6058;48.704;9.474;2022-08-05T11:11:51;2.28;;;1.75;;
11996;SDS011;6058;48.704;9.474;2022-08-05T11:14:22;2.83;;;2.00;;
11996;SDS011;6058;48.704;9.474;2022-08-05T11:19:43;1.70;;;1.60;;
11996;SDS011;6058;48.704;9.474;2022-08-05T11:27:43;2.08;;;1.85;;
11996;SDS011;6058;48.704;9.474;2022-08-05T11:30:10;1.50;;;1.33;;
11996;SDS011;6058;48.704;9.474;2022-08-05T11:32:38;1.60;;;1.50;;
11996;SDS011;6058;48.704;9.474;2022-08-05T11:35:05;1.85;;;1.75;;
11996;SDS011;6058;48.704;9.474;2022-08-05T11:40:18;1.90;;;1.70;;
11996;SDS011;6058;48.704;9.474;2022-08-05T11:42:54;1.85;;;1.73;;
11996;SDS011;6058;48.704;9.474;2022-08-05T11:45:22;1.67;;;1.58;;
11996;SDS011;6058;48.704;9.474;2022-08-05T11:47:49;2.40;;;1.90;;
11996;SDS011;6058;48.704;9.474;2022-08-05T11:50:16;1.80;;;1.70;;
11996;SDS011;6058;48.704;9.474;2022-08-05T11:52:43;2.50;;;2.13;;
11996;SDS011;6058;48.704;9.474;2022-08-05T11:55:11;3.92;;;2.28;;
11996;SDS011;6058;48.704;9.474;2022-08-05T11:57:44;2.08;;;1.88;;
11996;SDS011;6058;48.704;9.474;2022-08-05T12:00:25;1.77;;;1.60;;
11996;SDS011;6058;48.704;9.474;2022-08-05T12:02:53;1.50;;;1.40;;
11996;SDS011;6058;48.704;9.474;2022-08-05T12:05:23;2.03;;;1.52;;
11996;SDS011;6058;48.704;9.474;2022-08-05T12:07:51;3.15;;;1.50;;
11996;SDS011;6058;48.704;9.474;2022-08-05T12:10:24;4.90;;;2.13;;
11996;SDS011;6058;48.704;9.474;2022-08-05T12:12:51;1.80;;;1.70;;
11996;SDS011;6058;48.704;9.474;2022-08-05T12:15:18;2.53;;;1.85;;
11996;SDS011;6058;48.704;9.474;2022-08-05T12:17:47;1.92;;;1.55;;
11996;SDS011;6058;48.704;9.474;2022-08-05T12:20:14;1.95;;;1.77;;
11996;SDS011;6058;48.704;9.474;2022-08-05T12:22:43;1.67;;;1.58;;
11996;SDS011;6058;48.704;9.474;2022-08-05T12:25:10;1.70;;;1.60;;
11996;SDS011;6058;48.704;9.474;2022-08-05T12:27:37;1.85;;;1.67;;
11996;SDS011;6058;48.704;9.474;2022-08-05T12:30:07;1.80;;;1.70;;
11996;SDS011;6058;48.704;9.474;2022-08-05T12:32:42;2.22;;;1.50;;
11996;SDS011;6058;48.704;9.474;2022-08-05T12:35:11;1.90;;;1.63;;
11996;SDS011;6058;48.704;9.474;2022-08-05T12:37:39;2.05;;;1.60;;
11996;SDS011;6058;48.704;9.474;2022-08-05T12:40:07;1.70;;;1.60;;
11996;SDS011;6058;48.704;9.474;2022-08-05T12:42:35;1.83;;;1.63;;
11996;SDS011;6058;48.704;9.474;2022-08-05T12:45:04;1.67;;;1.58;;
11996;SDS011;6058;48.704;9.474;2022-08-05T12:47:31;1.80;;;1.70;;
11996;SDS011;6058;48.704;9.474;2022-08-05T12:49:59;2.35;;;1.70;;
11996;SDS011;6058;48.704;9.474;2022-08-05T12:54:56;1.52;;;1.42;;
11996;SDS011;6058;48.704;9.474;2022-08-05T12:57:23;2.30;;;1.58;;
11996;SDS011;6058;48.704;9.474;2022-08-05T12:59:52;1.80;;;1.70;;
11996;SDS011;6058;48.704;9.474;2022-08-05T13:02:20;2.03;;;1.40;;
11996;SDS011;6058;48.704;9.474;2022-08-05T13:04:48;1.83;;;1.73;;
11996;SDS011;6058;48.704;9.474;2022-08-05T13:07:16;2.05;;;1.75;;
11996;SDS011;6058;48.704;9.474;2022-08-05T13:09:48;2.08;;;1.55;;
11996;SDS011;6058;48.704;9.474;2022-08-05T13:12:18;1.75;;;1.52;;
11996;SDS011;6058;48.704;9.474;2022-08-05T13:14:46;1.50;;;1.40;;
11996;SDS011;6058;48.704;9.474;2022-08-05T13:17:18;1.33;;;1.30;;
11996;SDS011;6058;48.704;9.474;2022-08-05T13:20:00;2.13;;;1.70;;
11996;SDS011;6058;48.704;9.474;2022-08-05T13:22:28;2.60;;;1.52;;
11996;SDS011;6058;48.704;9.474;2022-08-05T13:24:56;1.70;;;1.60;;
11996;SDS011;6058;48.704;9.474;2022-08-05T13:27:26;1.45;;;1.35;;
11996;SDS011;6058;48.704;9.474;2022-08-05T13:29:53;1.55;;;1.45;;
11996;SDS011;6058;48.704;9.474;2022-08-05T13:32:21;2.10;;;1.77;;
11996;SDS011;6058;48.704;9.474;2022-08-05T13:34:48;2.17;;;1.60;;
11996;SDS011;6058;48.704;9.474;2022-08-05T13:37:16;1.88;;;1.65;;
11996;SDS011;6058;48.704;9.474;2022-08-05T13:39:45;1.38;;;1.27;;
11996;SDS011;6058;48.704;9.474;2022-08-05T13:42:12;1.80;;;1.70;;
11996;SDS011;6058;48.704;9.474;2022-08-05T13:44:41;1.52;;;1.42;;
11996;SDS011;6058;48.704;9.474;2022-08-05T13:47:08;2.45;;;1.63;;
11996;SDS011;6058;48.704;9.474;2022-08-05T13:49:35;1.52;;;1.42;;
11996;SDS011;6058;48.704;9.474;2022-08-05T13:52:09;1.98;;;1.75;;
11996;SDS011;6058;48.704;9.474;2022-08-05T13:54:36;1.75;;;1.65;;
11996;SDS011;6058;48.704;9.474;2022-08-05T13:57:04;1.63;;;1.52;;
11996;SDS011;6058;48.704;9.474;2022-08-05T13:59:31;2.03;;;1.80;;
11996;SDS011;6058;48.704;9.474;2022-08-05T14:02:00;2.03;;;1.63;;
11996;SDS011;6058;48.704;9.474;2022-08-05T14:04:28;1.88;;;1.77;;
11996;SDS011;6058;48.704;9.474;2022-08-05T14:07:13;2.00;;;1.90;;
11996;SDS011;6058;48.704;9.474;2022-08-05T14:09:40;2.17;;;1.90;;
11996;SDS011;6058;48.704;9.474;2022-08-05T14:12:07;2.25;;;2.05;;
11996;SDS011;6058;48.704;9.474;2022-08-05T14:14:34;2.25;;;1.88;;
11996;SDS011;6058;48.704;9.474;2022-08-05T14:17:03;2.55;;;1.98;;
11996;SDS011;6058;48.704;9.474;2022-08-05T14:19:31;1.80;;;1.70;;
11996;SDS011;6058;48.704;9.474;2022-08-05T14:21:58;2.42;;;1.90;;
11996;SDS011;6058;48.704;9.474;2022-08-05T14:24:25;5.15;;;2.25;;
11996;SDS011;6058;48.704;9.474;2022-08-05T14:26:52;2.00;;;1.90;;
11996;SDS011;6058;48.704;9.474;2022-08-05T14:29:20;1.95;;;1.65;;
11996;SDS011;6058;48.704;9.474;2022-08-05T14:31:47;2.10;;;1.90;;
11996;SDS011;6058;48.704;9.474;2022-08-05T14:34:15;2.10;;;1.90;;
11996;SDS011;6058;48.704;9.474;2022-08-05T14:36:42;2.15;;;2.05;;
11996;SDS011;6058;48.704;9.474;2022-08-05T14:39:10;1.75;;;1.65;;
11996;SDS011;6058;48.704;9.474;2022-08-05T14:41:37;5.50;;;4.70;;
11996;SDS011;6058;48.704;9.474;2022-08-05T14:44:04;3.90;;;3.20;;
11996;SDS011;6058;48.704;9.474;2022-08-05T14:46:32;2.65;;;2.17;;
11996;SDS011;6058;48.704;9.474;2022-08-05T14:48:59;3.25;;;3.05;;
11996;SDS011;6058;48.704;9.474;2022-08-05T14:51:28;4.18;;;2.00;;
11996;SDS011;6058;48.704;9.474;2022-08-05T14:53:55;2.58;;;2.38;;
11996;SDS011;6058;48.704;9.474;2022-08-05T14:56:22;2.58;;;2.15;;
11996;SDS011;6058;48.704;9.474;2022-08-05T14:58:49;2.72;;;2.10;;
11996;SDS011;6058;48.704;9.474;2022-08-05T15:01:17;2.30;;;2.10;;
11996;SDS011;6058;48.704;9.474;2022-08-05T15:03:44;2.22;;;1.95;;
11996;SDS011;6058;48.704;9.474;2022-08-05T15:06:12;2.42;;;2.20;;
11996;SDS011;6058;48.704;9.474;2022-08-05T15:08:41;2.75;;;1.65;;
11996;SDS011;6058;48.704;9.474;2022-08-05T15:11:09;3.28;;;2.08;;
11996;SDS011;6058;48.704;9.474;2022-08-05T15:13:36;2.30;;;2.00;;
11996;SDS011;6058;48.704;9.474;2022-08-05T15:16:04;8.23;;;2.50;;
11996;SDS011;6058;48.704;9.474;2022-08-05T15:18:31;2.38;;;1.80;;
11996;SDS011;6058;48.704;9.474;2022-08-05T15:20:59;1.92;;;1.80;;
11996;SDS011;6058;48.704;9.474;2022-08-05T15:23:27;2.50;;;1.80;;
11996;SDS011;6058;48.704;9.474;2022-08-05T15:25:56;2.47;;;1.58;;
11996;SDS011;6058;48.704;9.474;2022-08-05T15:28:23;2.20;;;2.00;;
11996;SDS011;6058;48.704;9.474;2022-08-05T15:30:50;1.80;;;1.70;;